sensor_id;sensor_type;location;lat;lon;timestamp;temperature;humidity
26186;DHT22;20067;48.764;9.176;2023-05-15T00:00:13;12.40;91.30
26186;DHT22;20067;48.764;9.176;2023-05-15T00:02:39;12.50;91.30
26186;DHT22;20067;48.764;9.176;2023-05-15T00:05:07;12.80;91.30
26186;DHT22;20067;48.764;9.176;2023-05-15T00:07:34;12.50;91.30
26186;DHT22;20067;48.764;9.176;2023-05-15T00:10:00;12.30;91.30
26186;DHT22;20067;48.764;9.176;2023-05-15T00:12:25;12.30;91.30
26186;DHT22;20067;48.764;9.176;2023-05-15T00:14:51;12.40;91.30
26186;DHT22;20067;48.764;9.176;2023-05-15T00:17:17;12.60;91.30
26186;DHT22;20067;48.764;9.176;2023-05-15T00:19:43;12.70;91.30
26186;DHT22;20067;48.764;9.176;2023-05-15T00:22:08;12.70;91.30
26186;DHT22;20067;48.764;9.176;2023-05-15T00:24:34;12.50;91.30
26186;DHT22;20067;48.764;9.176;2023-05-15T00:27:00;12.50;91.30
26186;DHT22;20067;48.764;9.176;2023-05-15T00:29:26;12.30;91.30
26186;DHT22;20067;48.764;9.176;2023-05-15T00:31:52;12.20;91.30
26186;DHT22;20067;48.764;9.176;2023-05-15T00:34:17;12.30;91.30
26186;DHT22;20067;48.764;9.176;2023-05-15T00:36:43;12.50;91.30
26186;DHT22;20067;48.764;9.176;2023-05-15T00:39:09;12.50;91.30
26186;DHT22;20067;48.764;9.176;2023-05-15T00:41:35;12.50;91.30
26186;DHT22;20067;48.764;9.176;2023-05-15T00:44:02;12.60;91.30
26186;DHT22;20067;48.764;9.176;2023-05-15T00:46:30;12.40;91.30
26186;DHT22;20067;48.764;9.176;2023-05-15T00:48:56;12.30;91.30
26186;DHT22;20067;48.764;9.176;2023-05-15T00:51:23;12.30;91.30
26186;DHT22;20067;48.764;9.176;2023-05-15T00:53:49;12.50;91.30
26186;DHT22;20067;48.764;9.176;2023-05-15T00:56:17;12.70;91.30
26186;DHT22;20067;48.764;9.176;2023-05-15T00:58:45;12.70;91.30
26186;DHT22;20067;48.764;9.176;2023-05-15T01:01:15;12.80;91.30
26186;DHT22;20067;48.764;9.176;2023-05-15T01:03:42;12.90;91.30
26186;DHT22;20067;48.764;9.176;2023-05-15T01:06:08;13.00;91.30
26186;DHT22;20067;48.764;9.176;2023-05-15T01:10:59;12.90;91.30
26186;DHT22;20067;48.764;9.176;2023-05-15T01:13:26;12.90;91.30
26186;DHT22;20067;48.764;9.176;2023-05-15T01:15:53;13.00;91.30
26186;DHT22;20067;48.764;9.176;2023-05-15T01:18:19;12.90;91.30
26186;DHT22;20067;48.764;9.176;2023-05-15T01:23:47;13.00;91.30
26186;DHT22;20067;48.764;9.176;2023-05-15T01:31:46;12.90;91.30
26186;DHT22;20067;48.764;9.176;2023-05-15T01:34:15;12.90;91.30
26186;DHT22;20067;48.764;9.176;2023-05-15T01:36:55;12.80;91.30
26186;DHT22;20067;48.764;9.176;2023-05-15T01:39:23;12.90;91.30
26186;DHT22;20067;48.764;9.176;2023-05-15T01:42:02;12.80;91.30
26186;DHT22;20067;48.764;9.176;2023-05-15T01:44:34;12.40;91.30
26186;DHT22;20067;48.764;9.176;2023-05-15T01:47:12;12.40;91.30
26186;DHT22;20067;48.764;9.176;2023-05-15T01:49:41;12.30;91.30
26186;DHT22;20067;48.764;9.176;2023-05-15T01:52:33;12.40;91.30
26186;DHT22;20067;48.764;9.176;2023-05-15T01:55:05;12.60;91.30
26186;DHT22;20067;48.764;9.176;2023-05-15T01:57:32;12.70;91.30
26186;DHT22;20067;48.764;9.176;2023-05-15T01:59:59;12.80;91.30
26186;DHT22;20067;48.764;9.176;2023-05-15T02:02:27;12.80;91.30
26186;DHT22;20067;48.764;9.176;2023-05-15T02:04:54;12.70;91.30
26186;DHT22;20067;48.764;9.176;2023-05-15T02:07:20;12.80;91.30
26186;DHT22;20067;48.764;9.176;2023-05-15T02:09:47;12.80;91.30
26186;DHT22;20067;48.764;9.176;2023-05-15T02:12:14;12.60;91.30
26186;DHT22;20067;48.764;9.176;2023-05-15T02:14:40;12.50;91.30
26186;DHT22;20067;48.764;9.176;2023-05-15T02:17:07;12.70;91.30
26186;DHT22;20067;48.764;9.176;2023-05-15T02:19:32;12.90;91.30
26186;DHT22;20067;48.764;9.176;2023-05-15T02:21:58;12.60;91.30
26186;DHT22;20067;48.764;9.176;2023-05-15T02:24:23;12.40;91.30
26186;DHT22;20067;48.764;9.176;2023-05-15T02:32:28;12.70;91.30
26186;DHT22;20067;48.764;9.176;2023-05-15T02:37:34;12.10;91.30
26186;DHT22;20067;48.764;9.176;2023-05-15T02:40:03;12.10;91.30
26186;DHT22;20067;48.764;9.176;2023-05-15T02:42:32;12.20;91.30
26186;DHT22;20067;48.764;9.176;2023-05-15T02:44:59;12.40;91.30
26186;DHT22;20067;48.764;9.176;2023-05-15T02:47:26;12.20;91.30
26186;DHT22;20067;48.764;9.176;2023-05-15T02:49:54;12.40;91.30
26186;DHT22;20067;48.764;9.176;2023-05-15T02:52:25;12.30;91.30
26186;DHT22;20067;48.764;9.176;2023-05-15T02:54:50;12.40;91.30
26186;DHT22;20067;48.764;9.176;2023-05-15T02:57:16;12.50;91.30
26186;DHT22;20067;48.764;9.176;2023-05-15T02:59:42;12.50;91.30
26186;DHT22;20067;48.764;9.176;2023-05-15T03:02:07;12.50;91.30
26186;DHT22;20067;48.764;9.176;2023-05-15T03:04:33;12.60;91.30
26186;DHT22;20067;48.764;9.176;2023-05-15T03:06:58;12.60;91.30
26186;DHT22;20067;48.764;9.176;2023-05-15T03:09:24;12.70;91.30
26186;DHT22;20067;48.764;9.176;2023-05-15T03:11:50;12.80;91.30
26186;DHT22;20067;48.764;9.176;2023-05-15T03:14:16;12.90;91.30
26186;DHT22;20067;48.764;9.176;2023-05-15T03:16:41;12.90;91.30
26186;DHT22;20067;48.764;9.176;2023-05-15T03:19:07;12.40;91.30
26186;DHT22;20067;48.764;9.176;2023-05-15T03:21:32;12.20;91.30
26186;DHT22;20067;48.764;9.176;2023-05-15T03:23:59;12.30;91.30
26186;DHT22;20067;48.764;9.176;2023-05-15T03:26:25;12.20;91.30
26186;DHT22;20067;48.764;9.176;2023-05-15T03:28:51;12.40;91.30
26186;DHT22;20067;48.764;9.176;2023-05-15T03:31:17;12.60;91.30
26186;DHT22;20067;48.764;9.176;2023-05-15T03:33:43;12.70;91.30
26186;DHT22;20067;48.764;9.176;2023-05-15T03:36:10;12.90;91.30
26186;DHT22;20067;48.764;9.176;2023-05-15T03:38:36;12.90;91.30
26186;DHT22;20067;48.764;9.176;2023-05-15T03:41:02;13.00;91.30
26186;DHT22;20067;48.764;9.176;2023-05-15T03:43:28;12.70;91.30
26186;DHT22;20067;48.764;9.176;2023-05-15T03:45:53;12.80;91.30
26186;DHT22;20067;48.764;9.176;2023-05-15T03:48:19;12.70;91.30
26186;DHT22;20067;48.764;9.176;2023-05-15T03:50:45;12.70;91.30
26186;DHT22;20067;48.764;9.176;2023-05-15T03:53:11;12.40;91.30
26186;DHT22;20067;48.764;9.176;2023-05-15T03:55:37;12.40;91.30
26186;DHT22;20067;48.764;9.176;2023-05-15T03:58:02;12.60;91.30
26186;DHT22;20067;48.764;9.176;2023-05-15T04:00:28;12.80;91.30
26186;DHT22;20067;48.764;9.176;2023-05-15T04:02:54;12.60;91.30
26186;DHT22;20067;48.764;9.176;2023-05-15T04:05:20;12.70;91.30
26186;DHT22;20067;48.764;9.176;2023-05-15T04:07:46;12.80;91.30
26186;DHT22;20067;48.764;9.176;2023-05-15T04:10:12;13.00;91.30
26186;DHT22;20067;48.764;9.176;2023-05-15T04:12:38;12.90;91.30
26186;DHT22;20067;48.764;9.176;2023-05-15T04:15:22;12.90;91.30
26186;DHT22;20067;48.764;9.176;2023-05-15T04:17:49;12.90;91.30
26186;DHT22;20067;48.764;9.176;2023-05-15T04:20:18;13.00;91.30
26186;DHT22;20067;48.764;9.176;2023-05-15T04:22:44;13.10;91.30
26186;DHT22;20067;48.764;9.176;2023-05-15T04:25:11;13.10;91.30
26186;DHT22;20067;48.764;9.176;2023-05-15T04:27:39;13.30;91.30
26186;DHT22;20067;48.764;9.176;2023-05-15T04:30:06;13.50;91.30
26186;DHT22;20067;48.764;9.176;2023-05-15T04:32:32;13.40;91.30
26186;DHT22;20067;48.764;9.176;2023-05-15T04:35:04;13.30;91.30
26186;DHT22;20067;48.764;9.176;2023-05-15T04:37:30;13.20;91.30
26186;DHT22;20067;48.764;9.176;2023-05-15T04:39:56;13.30;91.30
26186;DHT22;20067;48.764;9.176;2023-05-15T04:42:22;13.40;91.30
26186;DHT22;20067;48.764;9.176;2023-05-15T04:44:48;13.60;91.30
26186;DHT22;20067;48.764;9.176;2023-05-15T04:47:13;13.60;91.30
26186;DHT22;20067;48.764;9.176;2023-05-15T04:49:40;13.40;91.30
26186;DHT22;20067;48.764;9.176;2023-05-15T04:52:06;13.40;91.30
26186;DHT22;20067;48.764;9.176;2023-05-15T04:54:32;13.40;91.30
26186;DHT22;20067;48.764;9.176;2023-05-15T04:56:58;13.60;91.30
26186;DHT22;20067;48.764;9.176;2023-05-15T04:59:23;14.00;91.30
26186;DHT22;20067;48.764;9.176;2023-05-15T05:01:50;14.10;91.30
26186;DHT22;20067;48.764;9.176;2023-05-15T05:04:16;14.20;91.30
26186;DHT22;20067;48.764;9.176;2023-05-15T05:06:45;13.90;91.30
26186;DHT22;20067;48.764;9.176;2023-05-15T05:09:11;14.20;91.30
26186;DHT22;20067;48.764;9.176;2023-05-15T05:11:38;14.40;91.30
26186;DHT22;20067;48.764;9.176;2023-05-15T05:14:08;14.40;91.30
26186;DHT22;20067;48.764;9.176;2023-05-15T05:16:34;14.30;91.30
26186;DHT22;20067;48.764;9.176;2023-05-15T05:19:00;14.40;91.30
26186;DHT22;20067;48.764;9.176;2023-05-15T05:21:25;14.40;91.30
26186;DHT22;20067;48.764;9.176;2023-05-15T05:23:51;14.40;91.30
26186;DHT22;20067;48.764;9.176;2023-05-15T05:26:16;14.30;91.30
26186;DHT22;20067;48.764;9.176;2023-05-15T05:28:42;14.60;91.30
26186;DHT22;20067;48.764;9.176;2023-05-15T05:31:08;14.90;91.00
26186;DHT22;20067;48.764;9.176;2023-05-15T05:33:33;14.80;91.30
26186;DHT22;20067;48.764;9.176;2023-05-15T05:35:59;14.60;91.30
26186;DHT22;20067;48.764;9.176;2023-05-15T05:38:25;14.90;91.10
26186;DHT22;20067;48.764;9.176;2023-05-15T05:40:52;14.80;90.60
26186;DHT22;20067;48.764;9.176;2023-05-15T05:43:17;14.70;90.70
26186;DHT22;20067;48.764;9.176;2023-05-15T05:45:43;14.70;91.30
26186;DHT22;20067;48.764;9.176;2023-05-15T05:48:09;14.90;90.60
26186;DHT22;20067;48.764;9.176;2023-05-15T05:50:35;15.00;91.00
26186;DHT22;20067;48.764;9.176;2023-05-15T05:53:00;15.20;89.80
26186;DHT22;20067;48.764;9.176;2023-05-15T05:55:26;15.20;89.80
26186;DHT22;20067;48.764;9.176;2023-05-15T05:57:51;15.20;90.10
26186;DHT22;20067;48.764;9.176;2023-05-15T06:00:17;15.30;89.80
26186;DHT22;20067;48.764;9.176;2023-05-15T06:02:43;15.40;89.30
26186;DHT22;20067;48.764;9.176;2023-05-15T06:05:09;15.30;89.50
26186;DHT22;20067;48.764;9.176;2023-05-15T06:07:35;15.00;90.00
26186;DHT22;20067;48.764;9.176;2023-05-15T06:10:00;15.00;90.30
26186;DHT22;20067;48.764;9.176;2023-05-15T06:12:27;15.00;90.20
26186;DHT22;20067;48.764;9.176;2023-05-15T06:14:53;15.30;89.80
26186;DHT22;20067;48.764;9.176;2023-05-15T06:17:19;15.50;88.70
26186;DHT22;20067;48.764;9.176;2023-05-15T06:19:45;15.20;89.50
26186;DHT22;20067;48.764;9.176;2023-05-15T06:22:10;15.00;90.10
26186;DHT22;20067;48.764;9.176;2023-05-15T06:24:36;15.00;90.70
26186;DHT22;20067;48.764;9.176;2023-05-15T06:27:02;15.20;89.90
26186;DHT22;20067;48.764;9.176;2023-05-15T06:29:28;15.40;89.10
26186;DHT22;20067;48.764;9.176;2023-05-15T06:31:53;15.10;90.30
26186;DHT22;20067;48.764;9.176;2023-05-15T06:34:19;15.30;90.00
26186;DHT22;20067;48.764;9.176;2023-05-15T06:36:44;15.40;89.50
26186;DHT22;20067;48.764;9.176;2023-05-15T06:39:10;15.50;89.40
26186;DHT22;20067;48.764;9.176;2023-05-15T06:41:36;15.50;89.30
26186;DHT22;20067;48.764;9.176;2023-05-15T06:44:03;15.40;90.00
26186;DHT22;20067;48.764;9.176;2023-05-15T06:46:28;15.10;89.90
26186;DHT22;20067;48.764;9.176;2023-05-15T06:48:54;15.30;89.90
26186;DHT22;20067;48.764;9.176;2023-05-15T06:51:20;15.40;89.90
26186;DHT22;20067;48.764;9.176;2023-05-15T06:53:45;15.30;89.20
26186;DHT22;20067;48.764;9.176;2023-05-15T06:56:11;15.40;90.10
26186;DHT22;20067;48.764;9.176;2023-05-15T06:58:36;15.40;88.80
26186;DHT22;20067;48.764;9.176;2023-05-15T07:01:02;15.60;88.40
26186;DHT22;20067;48.764;9.176;2023-05-15T07:03:31;15.70;87.90
26186;DHT22;20067;48.764;9.176;2023-05-15T07:05:57;15.60;87.60
26186;DHT22;20067;48.764;9.176;2023-05-15T07:08:22;15.60;88.30
26186;DHT22;20067;48.764;9.176;2023-05-15T07:10:48;15.60;88.00
26186;DHT22;20067;48.764;9.176;2023-05-15T07:13:18;15.70;87.80
26186;DHT22;20067;48.764;9.176;2023-05-15T07:15:44;15.90;87.20
26186;DHT22;20067;48.764;9.176;2023-05-15T07:18:10;16.10;87.90
26186;DHT22;20067;48.764;9.176;2023-05-15T07:20:36;16.00;86.60
26186;DHT22;20067;48.764;9.176;2023-05-15T07:23:02;16.10;86.60
26186;DHT22;20067;48.764;9.176;2023-05-15T07:25:28;16.20;85.90
26186;DHT22;20067;48.764;9.176;2023-05-15T07:27:53;16.60;85.90
26186;DHT22;20067;48.764;9.176;2023-05-15T07:30:19;17.20;84.50
26186;DHT22;20067;48.764;9.176;2023-05-15T07:32:45;18.30;80.50
26186;DHT22;20067;48.764;9.176;2023-05-15T07:35:10;19.00;78.30
26186;DHT22;20067;48.764;9.176;2023-05-15T07:37:36;18.90;77.50
26186;DHT22;20067;48.764;9.176;2023-05-15T07:40:02;17.90;79.10
26186;DHT22;20067;48.764;9.176;2023-05-15T07:42:28;18.00;80.00
26186;DHT22;20067;48.764;9.176;2023-05-15T07:44:54;19.00;77.60
26186;DHT22;20067;48.764;9.176;2023-05-15T07:47:20;21.10;73.80
26186;DHT22;20067;48.764;9.176;2023-05-15T07:49:45;22.30;69.80
26186;DHT22;20067;48.764;9.176;2023-05-15T07:52:11;22.50;68.60
26186;DHT22;20067;48.764;9.176;2023-05-15T07:54:36;23.90;65.20
26186;DHT22;20067;48.764;9.176;2023-05-15T07:57:04;23.50;63.80
26186;DHT22;20067;48.764;9.176;2023-05-15T07:59:29;22.30;68.00
26186;DHT22;20067;48.764;9.176;2023-05-15T08:01:55;22.80;66.30
26186;DHT22;20067;48.764;9.176;2023-05-15T08:04:21;23.40;65.60
26186;DHT22;20067;48.764;9.176;2023-05-15T08:06:46;23.90;63.20
26186;DHT22;20067;48.764;9.176;2023-05-15T08:09:12;24.20;63.30
26186;DHT22;20067;48.764;9.176;2023-05-15T08:11:37;23.80;64.00
26186;DHT22;20067;48.764;9.176;2023-05-15T08:14:03;24.10;61.70
26186;DHT22;20067;48.764;9.176;2023-05-15T08:16:29;23.70;63.00
26186;DHT22;20067;48.764;9.176;2023-05-15T08:18:54;23.80;62.40
26186;DHT22;20067;48.764;9.176;2023-05-15T08:21:28;22.60;64.80
26186;DHT22;20067;48.764;9.176;2023-05-15T08:23:54;23.00;65.50
26186;DHT22;20067;48.764;9.176;2023-05-15T08:26:20;23.60;63.50
26186;DHT22;20067;48.764;9.176;2023-05-15T08:28:46;22.20;66.20
26186;DHT22;20067;48.764;9.176;2023-05-15T08:31:11;22.90;66.10
26186;DHT22;20067;48.764;9.176;2023-05-15T08:33:37;23.20;65.10
26186;DHT22;20067;48.764;9.176;2023-05-15T08:36:03;24.30;63.10
26186;DHT22;20067;48.764;9.176;2023-05-15T08:38:28;24.10;63.00
26186;DHT22;20067;48.764;9.176;2023-05-15T08:40:57;24.80;61.90
26186;DHT22;20067;48.764;9.176;2023-05-15T08:43:29;24.20;61.10
26186;DHT22;20067;48.764;9.176;2023-05-15T08:45:57;22.80;65.30
26186;DHT22;20067;48.764;9.176;2023-05-15T08:48:25;22.90;63.30
26186;DHT22;20067;48.764;9.176;2023-05-15T08:50:56;21.80;66.30
26186;DHT22;20067;48.764;9.176;2023-05-15T08:53:22;22.50;65.80
26186;DHT22;20067;48.764;9.176;2023-05-15T08:55:48;23.80;63.90
26186;DHT22;20067;48.764;9.176;2023-05-15T08:58:14;22.30;64.90
26186;DHT22;20067;48.764;9.176;2023-05-15T09:00:41;22.20;67.40
26186;DHT22;20067;48.764;9.176;2023-05-15T09:03:13;22.20;66.50
26186;DHT22;20067;48.764;9.176;2023-05-15T09:05:40;23.50;64.70
26186;DHT22;20067;48.764;9.176;2023-05-15T09:08:06;24.20;62.90
26186;DHT22;20067;48.764;9.176;2023-05-15T09:10:32;23.50;64.20
26186;DHT22;20067;48.764;9.176;2023-05-15T09:13:00;23.80;62.90
26186;DHT22;20067;48.764;9.176;2023-05-15T09:15:26;23.30;62.70
26186;DHT22;20067;48.764;9.176;2023-05-15T09:17:53;23.90;62.00
26186;DHT22;20067;48.764;9.176;2023-05-15T09:20:31;24.90;60.70
26186;DHT22;20067;48.764;9.176;2023-05-15T09:22:59;24.80;59.70
26186;DHT22;20067;48.764;9.176;2023-05-15T09:25:52;23.90;62.70
26186;DHT22;20067;48.764;9.176;2023-05-15T09:30:56;23.60;64.00
26186;DHT22;20067;48.764;9.176;2023-05-15T09:33:37;23.00;65.10
26186;DHT22;20067;48.764;9.176;2023-05-15T09:36:05;21.50;68.40
26186;DHT22;20067;48.764;9.176;2023-05-15T09:38:39;20.90;69.60
26186;DHT22;20067;48.764;9.176;2023-05-15T09:41:07;20.90;69.40
26186;DHT22;20067;48.764;9.176;2023-05-15T09:43:35;20.00;71.80
26186;DHT22;20067;48.764;9.176;2023-05-15T09:46:01;20.00;71.30
26186;DHT22;20067;48.764;9.176;2023-05-15T09:48:27;20.30;70.60
26186;DHT22;20067;48.764;9.176;2023-05-15T09:50:53;20.20;70.20
26186;DHT22;20067;48.764;9.176;2023-05-15T09:53:21;20.40;69.90
26186;DHT22;20067;48.764;9.176;2023-05-15T09:55:47;21.00;68.40
26186;DHT22;20067;48.764;9.176;2023-05-15T09:58:17;20.90;68.80
26186;DHT22;20067;48.764;9.176;2023-05-15T10:00:45;21.40;69.10
26186;DHT22;20067;48.764;9.176;2023-05-15T10:03:11;21.30;67.90
26186;DHT22;20067;48.764;9.176;2023-05-15T10:05:38;21.50;67.50
26186;DHT22;20067;48.764;9.176;2023-05-15T10:08:04;20.80;68.70
26186;DHT22;20067;48.764;9.176;2023-05-15T10:10:30;20.50;69.40
26186;DHT22;20067;48.764;9.176;2023-05-15T10:12:58;20.50;69.30
26186;DHT22;20067;48.764;9.176;2023-05-15T10:15:24;21.90;67.60
26186;DHT22;20067;48.764;9.176;2023-05-15T10:17:52;22.10;66.90
26186;DHT22;20067;48.764;9.176;2023-05-15T10:20:27;21.60;67.10
26186;DHT22;20067;48.764;9.176;2023-05-15T10:22:54;22.50;66.30
26186;DHT22;20067;48.764;9.176;2023-05-15T10:25:37;21.70;65.80
26186;DHT22;20067;48.764;9.176;2023-05-15T10:28:09;22.20;65.00
26186;DHT22;20067;48.764;9.176;2023-05-15T10:30:35;21.80;65.90
26186;DHT22;20067;48.764;9.176;2023-05-15T10:33:02;21.70;66.10
26186;DHT22;20067;48.764;9.176;2023-05-15T10:35:29;22.60;63.50
26186;DHT22;20067;48.764;9.176;2023-05-15T10:37:56;23.10;62.00
26186;DHT22;20067;48.764;9.176;2023-05-15T10:40:22;23.20;62.10
26186;DHT22;20067;48.764;9.176;2023-05-15T10:42:48;22.70;62.60
26186;DHT22;20067;48.764;9.176;2023-05-15T10:45:14;22.80;62.60
26186;DHT22;20067;48.764;9.176;2023-05-15T10:47:41;24.20;61.50
26186;DHT22;20067;48.764;9.176;2023-05-15T10:50:07;25.70;58.50
26186;DHT22;20067;48.764;9.176;2023-05-15T10:52:37;27.00;54.60
26186;DHT22;20067;48.764;9.176;2023-05-15T10:55:13;26.20;55.40
26186;DHT22;20067;48.764;9.176;2023-05-15T10:57:41;27.80;52.50
26186;DHT22;20067;48.764;9.176;2023-05-15T11:00:33;28.50;48.20
26186;DHT22;20067;48.764;9.176;2023-05-15T11:03:05;27.20;50.60
26186;DHT22;20067;48.764;9.176;2023-05-15T11:06:09;29.10;49.80
26186;DHT22;20067;48.764;9.176;2023-05-15T11:08:37;31.00;46.10
26186;DHT22;20067;48.764;9.176;2023-05-15T11:11:03;29.60;48.30
26186;DHT22;20067;48.764;9.176;2023-05-15T11:27:17;32.10;44.70
26186;DHT22;20067;48.764;9.176;2023-05-15T11:30:05;30.90;45.40
26186;DHT22;20067;48.764;9.176;2023-05-15T11:32:58;27.70;48.60
26186;DHT22;20067;48.764;9.176;2023-05-15T11:40:47;32.30;41.70
26186;DHT22;20067;48.764;9.176;2023-05-15T11:43:24;28.00;47.60
26186;DHT22;20067;48.764;9.176;2023-05-15T11:45:53;25.80;52.90
26186;DHT22;20067;48.764;9.176;2023-05-15T11:48:21;26.10;51.80
26186;DHT22;20067;48.764;9.176;2023-05-15T11:50:47;26.10;51.00
26186;DHT22;20067;48.764;9.176;2023-05-15T11:53:13;27.60;47.50
26186;DHT22;20067;48.764;9.176;2023-05-15T11:55:41;29.50;46.20
26186;DHT22;20067;48.764;9.176;2023-05-15T11:58:12;27.90;47.50
26186;DHT22;20067;48.764;9.176;2023-05-15T12:00:39;26.50;51.30
26186;DHT22;20067;48.764;9.176;2023-05-15T12:03:05;28.40;47.20
26186;DHT22;20067;48.764;9.176;2023-05-15T12:05:30;30.30;46.00
26186;DHT22;20067;48.764;9.176;2023-05-15T12:07:56;30.80;44.40
26186;DHT22;20067;48.764;9.176;2023-05-15T12:10:22;28.80;46.90
26186;DHT22;20067;48.764;9.176;2023-05-15T12:12:48;24.20;54.70
26186;DHT22;20067;48.764;9.176;2023-05-15T12:15:15;24.30;55.50
26186;DHT22;20067;48.764;9.176;2023-05-15T12:17:43;24.30;54.50
26186;DHT22;20067;48.764;9.176;2023-05-15T12:20:13;26.10;50.50
26186;DHT22;20067;48.764;9.176;2023-05-15T12:22:39;27.80;47.60
26186;DHT22;20067;48.764;9.176;2023-05-15T12:25:07;29.20;46.10
26186;DHT22;20067;48.764;9.176;2023-05-15T12:27:34;27.20;48.70
26186;DHT22;20067;48.764;9.176;2023-05-15T12:30:01;24.20;54.50
26186;DHT22;20067;48.764;9.176;2023-05-15T12:32:30;22.30;59.20
26186;DHT22;20067;48.764;9.176;2023-05-15T12:34:56;22.80;59.70
26186;DHT22;20067;48.764;9.176;2023-05-15T12:37:22;23.10;58.50
26186;DHT22;20067;48.764;9.176;2023-05-15T12:40:00;25.00;53.80
26186;DHT22;20067;48.764;9.176;2023-05-15T12:42:25;25.80;50.70
26186;DHT22;20067;48.764;9.176;2023-05-15T12:44:53;28.60;46.30
26186;DHT22;20067;48.764;9.176;2023-05-15T12:47:26;29.70;44.80
26186;DHT22;20067;48.764;9.176;2023-05-15T12:49:56;30.50;44.20
26186;DHT22;20067;48.764;9.176;2023-05-15T12:52:22;30.60;43.40
26186;DHT22;20067;48.764;9.176;2023-05-15T12:54:47;28.70;46.10
26186;DHT22;20067;48.764;9.176;2023-05-15T12:57:14;26.80;49.50
26186;DHT22;20067;48.764;9.176;2023-05-15T12:59:40;24.70;53.50
26186;DHT22;20067;48.764;9.176;2023-05-15T13:02:10;23.40;56.30
26186;DHT22;20067;48.764;9.176;2023-05-15T13:04:36;22.40;58.00
26186;DHT22;20067;48.764;9.176;2023-05-15T13:07:02;22.50;59.60
26186;DHT22;20067;48.764;9.176;2023-05-15T13:09:28;22.00;60.40
26186;DHT22;20067;48.764;9.176;2023-05-15T13:11:54;21.30;62.20
26186;DHT22;20067;48.764;9.176;2023-05-15T13:14:21;20.80;63.90
26186;DHT22;20067;48.764;9.176;2023-05-15T13:16:47;20.30;66.00
26186;DHT22;20067;48.764;9.176;2023-05-15T13:19:13;20.40;64.60
26186;DHT22;20067;48.764;9.176;2023-05-15T13:21:40;20.40;64.50
26186;DHT22;20067;48.764;9.176;2023-05-15T13:24:05;23.00;59.10
26186;DHT22;20067;48.764;9.176;2023-05-15T13:26:34;24.30;55.60
26186;DHT22;20067;48.764;9.176;2023-05-15T13:28:59;23.50;57.60
26186;DHT22;20067;48.764;9.176;2023-05-15T13:31:26;21.90;60.30
26186;DHT22;20067;48.764;9.176;2023-05-15T13:33:51;21.60;60.90
26186;DHT22;20067;48.764;9.176;2023-05-15T13:36:17;21.60;61.60
26186;DHT22;20067;48.764;9.176;2023-05-15T13:38:42;21.20;62.20
26186;DHT22;20067;48.764;9.176;2023-05-15T13:41:08;20.70;63.40
26186;DHT22;20067;48.764;9.176;2023-05-15T13:43:34;20.50;64.00
26186;DHT22;20067;48.764;9.176;2023-05-15T13:46:00;20.50;65.00
26186;DHT22;20067;48.764;9.176;2023-05-15T13:48:25;21.90;63.40
26186;DHT22;20067;48.764;9.176;2023-05-15T13:50:51;22.80;60.70
26186;DHT22;20067;48.764;9.176;2023-05-15T13:53:17;26.00;55.20
26186;DHT22;20067;48.764;9.176;2023-05-15T13:55:43;26.80;52.50
26186;DHT22;20067;48.764;9.176;2023-05-15T13:58:10;26.30;53.70
26186;DHT22;20067;48.764;9.176;2023-05-15T14:00:37;24.10;56.60
26186;DHT22;20067;48.764;9.176;2023-05-15T14:03:03;23.10;59.80
26186;DHT22;20067;48.764;9.176;2023-05-15T14:05:28;21.90;62.60
26186;DHT22;20067;48.764;9.176;2023-05-15T14:07:54;21.50;64.40
26186;DHT22;20067;48.764;9.176;2023-05-15T14:10:21;21.40;65.60
26186;DHT22;20067;48.764;9.176;2023-05-15T14:12:48;22.10;66.10
26186;DHT22;20067;48.764;9.176;2023-05-15T14:15:14;24.90;59.00
26186;DHT22;20067;48.764;9.176;2023-05-15T14:17:40;27.20;53.60
26186;DHT22;20067;48.764;9.176;2023-05-15T14:20:06;24.50;56.30
26186;DHT22;20067;48.764;9.176;2023-05-15T14:22:34;23.10;60.30
26186;DHT22;20067;48.764;9.176;2023-05-15T14:25:00;22.60;61.20
26186;DHT22;20067;48.764;9.176;2023-05-15T14:27:26;23.20;60.50
26186;DHT22;20067;48.764;9.176;2023-05-15T14:29:52;22.90;61.40
26186;DHT22;20067;48.764;9.176;2023-05-15T14:32:17;23.00;61.50
26186;DHT22;20067;48.764;9.176;2023-05-15T14:34:43;21.20;65.60
26186;DHT22;20067;48.764;9.176;2023-05-15T14:37:09;20.60;67.40
26186;DHT22;20067;48.764;9.176;2023-05-15T14:39:34;20.50;67.60
26186;DHT22;20067;48.764;9.176;2023-05-15T14:42:00;20.30;67.60
26186;DHT22;20067;48.764;9.176;2023-05-15T14:44:26;20.40;68.00
26186;DHT22;20067;48.764;9.176;2023-05-15T14:47:24;20.70;67.80
26186;DHT22;20067;48.764;9.176;2023-05-15T14:49:52;21.00;67.40
26186;DHT22;20067;48.764;9.176;2023-05-15T14:52:17;20.80;67.80
26186;DHT22;20067;48.764;9.176;2023-05-15T14:54:43;20.70;67.40
26186;DHT22;20067;48.764;9.176;2023-05-15T14:57:09;21.10;67.80
26186;DHT22;20067;48.764;9.176;2023-05-15T14:59:34;21.30;66.80
26186;DHT22;20067;48.764;9.176;2023-05-15T15:02:00;21.30;66.10
26186;DHT22;20067;48.764;9.176;2023-05-15T15:04:25;21.50;64.50
26186;DHT22;20067;48.764;9.176;2023-05-15T15:06:53;21.70;64.10
26186;DHT22;20067;48.764;9.176;2023-05-15T15:09:22;22.10;61.50
26186;DHT22;20067;48.764;9.176;2023-05-15T15:11:48;22.30;61.00
26186;DHT22;20067;48.764;9.176;2023-05-15T15:14:13;22.00;61.50
26186;DHT22;20067;48.764;9.176;2023-05-15T15:16:39;21.60;62.80
26186;DHT22;20067;48.764;9.176;2023-05-15T15:19:04;20.70;63.70
26186;DHT22;20067;48.764;9.176;2023-05-15T15:21:30;19.90;66.10
26186;DHT22;20067;48.764;9.176;2023-05-15T15:23:56;19.90;66.70
26186;DHT22;20067;48.764;9.176;2023-05-15T15:26:21;19.50;67.80
26186;DHT22;20067;48.764;9.176;2023-05-15T15:28:47;19.70;66.80
26186;DHT22;20067;48.764;9.176;2023-05-15T15:31:13;19.30;67.20
26186;DHT22;20067;48.764;9.176;2023-05-15T15:33:39;19.20;66.80
26186;DHT22;20067;48.764;9.176;2023-05-15T15:36:05;19.30;66.70
26186;DHT22;20067;48.764;9.176;2023-05-15T15:38:31;19.20;67.20
26186;DHT22;20067;48.764;9.176;2023-05-15T15:40:56;19.70;66.40
26186;DHT22;20067;48.764;9.176;2023-05-15T15:43:22;20.20;65.30
26186;DHT22;20067;48.764;9.176;2023-05-15T15:45:47;20.40;65.00
26186;DHT22;20067;48.764;9.176;2023-05-15T15:48:13;20.20;65.40
26186;DHT22;20067;48.764;9.176;2023-05-15T15:50:39;19.90;66.70
26186;DHT22;20067;48.764;9.176;2023-05-15T15:53:04;19.40;68.70
26186;DHT22;20067;48.764;9.176;2023-05-15T15:55:30;18.80;71.00
26186;DHT22;20067;48.764;9.176;2023-05-15T15:57:55;18.60;72.20
26186;DHT22;20067;48.764;9.176;2023-05-15T16:00:21;18.60;72.00
26186;DHT22;20067;48.764;9.176;2023-05-15T16:02:46;18.50;71.80
26186;DHT22;20067;48.764;9.176;2023-05-15T16:05:12;18.00;71.60
26186;DHT22;20067;48.764;9.176;2023-05-15T16:07:38;17.70;71.90
26186;DHT22;20067;48.764;9.176;2023-05-15T16:10:04;17.50;72.90